sensor_id;sensor_type;location;lat;lon;timestamp;pressure;altitude;pressure_sealevel;temperature;humidity
81909;BME280;71372;43.514;1.512;2024-03-17T00:02:21;100525.38;;;11.32;73.44
81909;BME280;71372;43.514;1.512;2024-03-17T00:04:47;100529.69;;;11.34;73.81
81909;BME280;71372;43.514;1.512;2024-03-17T00:07:13;100531.41;;;11.37;73.76
81909;BME280;71372;43.514;1.512;2024-03-17T00:09:40;100528.66;;;11.38;73.87
81909;BME280;71372;43.514;1.512;2024-03-17T00:12:07;100534.72;;;11.42;73.69
81909;BME280;71372;43.514;1.512;2024-03-17T00:14:34;100526.56;;;11.45;73.64
81909;BME280;71372;43.514;1.512;2024-03-17T00:17:01;100523.75;;;11.48;73.94
81909;BME280;71372;43.514;1.512;2024-03-17T00:19:27;100529.84;;;11.52;73.33
81909;BME280;71372;43.514;1.512;2024-03-17T00:21:53;100516.44;;;11.53;73.96
81909;BME280;71372;43.514;1.512;2024-03-17T00:24:19;100515.56;;;11.53;74.02
81909;BME280;71372;43.514;1.512;2024-03-17T00:26:46;100514.72;;;11.52;73.72
81909;BME280;71372;43.514;1.512;2024-03-17T00:29:12;100512.13;;;11.51;73.67
81909;BME280;71372;43.514;1.512;2024-03-17T00:31:38;100505.09;;;11.48;73.88
81909;BME280;71372;43.514;1.512;2024-03-17T00:34:04;100497.25;;;11.45;73.86
81909;BME280;71372;43.514;1.512;2024-03-17T00:36:30;100497.38;;;11.42;73.88
81909;BME280;71372;43.514;1.512;2024-03-17T00:38:57;100497.47;;;11.40;73.77
81909;BME280;71372;43.514;1.512;2024-03-17T00:41:23;100493.19;;;11.36;74.10
81909;BME280;71372;43.514;1.512;2024-03-17T00:43:49;100487.13;;;11.33;73.96
81909;BME280;71372;43.514;1.512;2024-03-17T00:46:16;100486.41;;;11.29;73.64
81909;BME280;71372;43.514;1.512;2024-03-17T00:48:47;100485.69;;;11.26;73.79
81909;BME280;71372;43.514;1.512;2024-03-17T00:51:13;100491.28;;;11.20;74.11
81909;BME280;71372;43.514;1.512;2024-03-17T00:53:39;100482.56;;;11.16;73.90
81909;BME280;71372;43.514;1.512;2024-03-17T00:56:05;100483.59;;;11.12;74.27
81909;BME280;71372;43.514;1.512;2024-03-17T00:58:32;100477.53;;;11.08;74.10
81909;BME280;71372;43.514;1.512;2024-03-17T01:00:58;100473.22;;;11.06;74.33
81909;BME280;71372;43.514;1.512;2024-03-17T01:03:24;100475.09;;;11.04;74.20
81909;BME280;71372;43.514;1.512;2024-03-17T01:05:50;100476.97;;;11.02;74.51
81909;BME280;71372;43.514;1.512;2024-03-17T01:08:19;100488.53;;;11.01;74.17
81909;BME280;71372;43.514;1.512;2024-03-17T01:10:46;100477.06;;;10.99;74.31
81909;BME280;71372;43.514;1.512;2024-03-17T01:13:16;100472.75;;;10.96;74.34
81909;BME280;71372;43.514;1.512;2024-03-17T01:15:42;100460.44;;;10.94;74.45
81909;BME280;71372;43.514;1.512;2024-03-17T01:18:08;100458.78;;;10.91;74.38
81909;BME280;71372;43.514;1.512;2024-03-17T01:20:35;100455.34;;;10.88;74.51
81909;BME280;71372;43.514;1.512;2024-03-17T01:23:02;100443.97;;;10.84;74.22
81909;BME280;71372;43.514;1.512;2024-03-17T01:25:28;100437.94;;;10.80;74.74
81909;BME280;71372;43.514;1.512;2024-03-17T01:27:55;100438.25;;;10.73;74.53
81909;BME280;71372;43.514;1.512;2024-03-17T01:30:22;100445.50;;;10.69;75.11
81909;BME280;71372;43.514;1.512;2024-03-17T01:32:50;100453.75;;;10.63;75.20
81909;BME280;71372;43.514;1.512;2024-03-17T01:35:16;100458.41;;;10.58;75.31
81909;BME280;71372;43.514;1.512;2024-03-17T01:37:42;100450.66;;;10.52;75.21
81909;BME280;71372;43.514;1.512;2024-03-17T01:40:10;100445.47;;;10.49;75.50
81909;BME280;71372;43.514;1.512;2024-03-17T01:42:37;100443.06;;;10.43;75.21
81909;BME280;71372;43.514;1.512;2024-03-17T01:45:33;100435.25;;;10.38;75.60
81909;BME280;71372;43.514;1.512;2024-03-17T01:48:00;100441.66;;;10.34;75.54
81909;BME280;71372;43.514;1.512;2024-03-17T01:50:31;100447.13;;;10.30;75.31
81909;BME280;71372;43.514;1.512;2024-03-17T01:53:01;100448.13;;;10.27;75.50
81909;BME280;71372;43.514;1.512;2024-03-17T01:55:28;100452.72;;;10.23;75.50
81909;BME280;71372;43.514;1.512;2024-03-17T01:57:54;100443.13;;;10.19;75.48
81909;BME280;71372;43.514;1.512;2024-03-17T02:00:20;100439.63;;;10.17;75.54
81909;BME280;71372;43.514;1.512;2024-03-17T02:02:47;100433.56;;;10.14;75.46
81909;BME280;71372;43.514;1.512;2024-03-17T02:05:13;100430.97;;;10.12;75.33
81909;BME280;71372;43.514;1.512;2024-03-17T02:07:39;100436.38;;;10.11;75.11
81909;BME280;71372;43.514;1.512;2024-03-17T02:10:06;100425.00;;;10.07;75.86
81909;BME280;71372;43.514;1.512;2024-03-17T02:12:34;100432.97;;;10.07;75.26
81909;BME280;71372;43.514;1.512;2024-03-17T02:15:01;100425.88;;;10.06;75.48
81909;BME280;71372;43.514;1.512;2024-03-17T02:17:32;100420.56;;;10.06;75.20
81909;BME280;71372;43.514;1.512;2024-03-17T02:19:58;100417.97;;;10.05;75.58
81909;BME280;71372;43.514;1.512;2024-03-17T02:22:25;100407.41;;;10.03;75.51
81909;BME280;71372;43.514;1.512;2024-03-17T02:24:53;100409.19;;;10.03;75.74
81909;BME280;71372;43.514;1.512;2024-03-17T02:27:19;100407.41;;;10.03;75.81
81909;BME280;71372;43.514;1.512;2024-03-17T02:29:45;100401.16;;;10.04;76.02
81909;BME280;71372;43.514;1.512;2024-03-17T02:32:11;100385.09;;;10.07;75.44
81909;BME280;71372;43.514;1.512;2024-03-17T02:34:38;100392.00;;;10.11;75.82
81909;BME280;71372;43.514;1.512;2024-03-17T02:37:05;100385.69;;;10.14;76.00
81909;BME280;71372;43.514;1.512;2024-03-17T02:39:35;100371.31;;;10.18;75.80
81909;BME280;71372;43.514;1.512;2024-03-17T02:42:09;100366.78;;;10.21;75.85
81909;BME280;71372;43.514;1.512;2024-03-17T02:44:37;100365.00;;;10.22;75.78
81909;BME280;71372;43.514;1.512;2024-03-17T02:47:04;100364.84;;;10.25;76.20
81909;BME280;71372;43.514;1.512;2024-03-17T02:49:31;100367.44;;;10.27;75.99
81909;BME280;71372;43.514;1.512;2024-03-17T02:52:07;100368.25;;;10.29;75.64
81909;BME280;71372;43.514;1.512;2024-03-17T02:54:36;100373.53;;;10.30;75.97
81909;BME280;71372;43.514;1.512;2024-03-17T02:57:05;100380.59;;;10.31;76.20
81909;BME280;71372;43.514;1.512;2024-03-17T02:59:34;100376.97;;;10.32;75.94
81909;BME280;71372;43.514;1.512;2024-03-17T03:02:00;100388.44;;;10.34;76.13
81909;BME280;71372;43.514;1.512;2024-03-17T03:04:27;100380.38;;;10.36;76.17
81909;BME280;71372;43.514;1.512;2024-03-17T03:06:53;100380.38;;;10.36;75.82
81909;BME280;71372;43.514;1.512;2024-03-17T03:09:19;100378.50;;;10.38;76.50
81909;BME280;71372;43.514;1.512;2024-03-17T03:12:03;100374.06;;;10.38;76.01
81909;BME280;71372;43.514;1.512;2024-03-17T03:14:29;100370.47;;;10.39;76.14
81909;BME280;71372;43.514;1.512;2024-03-17T03:16:56;100383.69;;;10.41;75.88
81909;BME280;71372;43.514;1.512;2024-03-17T03:19:22;100378.34;;;10.42;76.10
81909;BME280;71372;43.514;1.512;2024-03-17T03:21:48;100379.19;;;10.43;76.43
81909;BME280;71372;43.514;1.512;2024-03-17T03:24:14;100377.25;;;10.46;76.20
81909;BME280;71372;43.514;1.512;2024-03-17T03:26:40;100376.25;;;10.49;76.84
81909;BME280;71372;43.514;1.512;2024-03-17T03:29:06;100380.72;;;10.48;76.25
81909;BME280;71372;43.514;1.512;2024-03-17T03:31:33;100375.47;;;10.47;76.62
81909;BME280;71372;43.514;1.512;2024-03-17T03:34:02;100376.25;;;10.49;76.50
81909;BME280;71372;43.514;1.512;2024-03-17T03:36:29;100374.47;;;10.49;76.47
81909;BME280;71372;43.514;1.512;2024-03-17T03:38:55;100374.47;;;10.49;76.60
81909;BME280;71372;43.514;1.512;2024-03-17T03:41:23;100374.41;;;10.51;76.53
81909;BME280;71372;43.514;1.512;2024-03-17T03:43:49;100376.97;;;10.52;76.88
81909;BME280;71372;43.514;1.512;2024-03-17T03:46:15;100373.47;;;10.52;76.23
81909;BME280;71372;43.514;1.512;2024-03-17T03:48:41;100374.31;;;10.52;76.14
81909;BME280;71372;43.514;1.512;2024-03-17T03:51:08;100374.28;;;10.54;76.61
81909;BME280;71372;43.514;1.512;2024-03-17T03:53:36;100376.00;;;10.55;76.71
81909;BME280;71372;43.514;1.512;2024-03-17T03:56:05;100376.81;;;10.57;76.87
81909;BME280;71372;43.514;1.512;2024-03-17T03:58:37;100382.13;;;10.57;76.62
81909;BME280;71372;43.514;1.512;2024-03-17T04:01:07;100383.06;;;10.56;76.79
81909;BME280;71372;43.514;1.512;2024-03-17T04:03:34;100376.88;;;10.56;76.95
81909;BME280;71372;43.514;1.512;2024-03-17T04:06:05;100365.22;;;10.58;76.37
81909;BME280;71372;43.514;1.512;2024-03-17T04:08:33;100367.81;;;10.60;76.72
81909;BME280;71372;43.514;1.512;2024-03-17T04:10:59;100372.13;;;10.62;76.76
81909;BME280;71372;43.514;1.512;2024-03-17T04:13:27;100368.53;;;10.63;76.33
81909;BME280;71372;43.514;1.512;2024-03-17T04:15:56;100368.81;;;10.57;76.70
81909;BME280;71372;43.514;1.512;2024-03-17T04:18:23;100370.56;;;10.58;76.98
81909;BME280;71372;43.514;1.512;2024-03-17T04:20:53;100366.94;;;10.59;76.67
81909;BME280;71372;43.514;1.512;2024-03-17T04:23:22;100368.59;;;10.62;76.42
81909;BME280;71372;43.514;1.512;2024-03-17T04:25:50;100362.34;;;10.63;76.95
81909;BME280;71372;43.514;1.512;2024-03-17T04:28:17;100364.94;;;10.64;76.40
81909;BME280;71372;43.514;1.512;2024-03-17T04:30:43;100368.44;;;10.66;76.57
81909;BME280;71372;43.514;1.512;2024-03-17T04:33:09;100370.94;;;10.69;76.50
81909;BME280;71372;43.514;1.512;2024-03-17T04:35:37;100370.00;;;10.70;76.72
81909;BME280;71372;43.514;1.512;2024-03-17T04:38:03;100367.34;;;10.70;76.75
81909;BME280;71372;43.514;1.512;2024-03-17T04:40:29;100367.28;;;10.72;76.52
81909;BME280;71372;43.514;1.512;2024-03-17T04:42:56;100364.53;;;10.73;76.31
81909;BME280;71372;43.514;1.512;2024-03-17T04:45:22;100360.16;;;10.72;76.49
81909;BME280;71372;43.514;1.512;2024-03-17T04:47:48;100362.81;;;10.72;76.75
81909;BME280;71372;43.514;1.512;2024-03-17T04:50:14;100364.63;;;10.72;76.57
81909;BME280;71372;43.514;1.512;2024-03-17T04:52:41;100365.63;;;10.69;76.67
81909;BME280;71372;43.514;1.512;2024-03-17T04:55:07;100378.22;;;10.66;76.53
81909;BME280;71372;43.514;1.512;2024-03-17T04:57:33;100378.41;;;10.61;76.61
81909;BME280;71372;43.514;1.512;2024-03-17T04:59:59;100379.41;;;10.59;76.23
81909;BME280;71372;43.514;1.512;2024-03-17T05:02:25;100392.00;;;10.55;76.50
81909;BME280;71372;43.514;1.512;2024-03-17T05:04:51;100404.47;;;10.53;76.74
81909;BME280;71372;43.514;1.512;2024-03-17T05:07:17;100405.53;;;10.49;76.78
81909;BME280;71372;43.514;1.512;2024-03-17T05:09:43;100406.59;;;10.45;76.27
81909;BME280;71372;43.514;1.512;2024-03-17T05:12:11;100410.28;;;10.42;76.43
81909;BME280;71372;43.514;1.512;2024-03-17T05:14:38;100410.44;;;10.38;76.19
81909;BME280;71372;43.514;1.512;2024-03-17T05:17:03;100416.78;;;10.35;76.66
81909;BME280;71372;43.514;1.512;2024-03-17T05:19:29;100416.97;;;10.31;76.69
81909;BME280;71372;43.514;1.512;2024-03-17T05:21:55;100427.66;;;10.29;76.63
81909;BME280;71372;43.514;1.512;2024-03-17T05:24:21;100430.50;;;10.24;76.51
81909;BME280;71372;43.514;1.512;2024-03-17T05:26:47;100431.59;;;10.19;76.78
81909;BME280;71372;43.514;1.512;2024-03-17T05:29:13;100426.38;;;10.16;76.47
81909;BME280;71372;43.514;1.512;2024-03-17T05:31:39;100422.19;;;10.10;76.40
81909;BME280;71372;43.514;1.512;2024-03-17T05:34:08;100419.66;;;10.07;76.68
81909;BME280;71372;43.514;1.512;2024-03-17T05:36:36;100432.19;;;10.04;76.80
81909;BME280;71372;43.514;1.512;2024-03-17T05:39:03;100433.25;;;10.00;77.09
81909;BME280;71372;43.514;1.512;2024-03-17T05:41:29;100439.63;;;9.95;76.71
81909;BME280;71372;43.514;1.512;2024-03-17T05:43:55;100449.50;;;9.92;77.00
81909;BME280;71372;43.514;1.512;2024-03-17T05:46:25;100445.25;;;9.88;76.55
81909;BME280;71372;43.514;1.512;2024-03-17T05:48:54;100450.69;;;9.85;77.09
81909;BME280;71372;43.514;1.512;2024-03-17T05:51:20;100449.06;;;9.81;77.22
81909;BME280;71372;43.514;1.512;2024-03-17T05:53:47;100451.78;;;9.79;77.45
81909;BME280;71372;43.514;1.512;2024-03-17T05:56:13;100449.19;;;9.78;76.80
81909;BME280;71372;43.514;1.512;2024-03-17T05:58:41;100460.75;;;9.77;76.77
81909;BME280;71372;43.514;1.512;2024-03-17T06:01:07;100455.50;;;9.75;77.57
81909;BME280;71372;43.514;1.512;2024-03-17T06:03:34;100464.47;;;9.73;77.76
81909;BME280;71372;43.514;1.512;2024-03-17T06:06:02;100468.94;;;9.71;78.03
81909;BME280;71372;43.514;1.512;2024-03-17T06:08:29;100469.78;;;9.73;77.70
81909;BME280;71372;43.514;1.512;2024-03-17T06:10:55;100459.06;;;9.74;77.54
81909;BME280;71372;43.514;1.512;2024-03-17T06:13:26;100453.56;;;9.79;77.34
81909;BME280;71372;43.514;1.512;2024-03-17T06:15:54;100454.22;;;9.85;77.32
81909;BME280;71372;43.514;1.512;2024-03-17T06:18:20;100460.16;;;9.92;77.02
81909;BME280;71372;43.514;1.512;2024-03-17T06:20:47;100464.38;;;9.98;77.35
81909;BME280;71372;43.514;1.512;2024-03-17T06:23:14;100456.13;;;10.04;78.01
81909;BME280;71372;43.514;1.512;2024-03-17T06:25:45;100456.72;;;10.12;77.99
81909;BME280;71372;43.514;1.512;2024-03-17T06:28:13;100459.94;;;10.20;77.63
81909;BME280;71372;43.514;1.512;2024-03-17T06:30:58;100458.63;;;10.32;77.45
81909;BME280;71372;43.514;1.512;2024-03-17T06:33:26;100463.44;;;10.44;77.01
81909;BME280;71372;43.514;1.512;2024-03-17T06:35:53;100456.75;;;10.56;77.58
81909;BME280;71372;43.514;1.512;2024-03-17T06:38:19;100453.50;;;10.69;77.06
81909;BME280;71372;43.514;1.512;2024-03-17T06:40:52;100457.28;;;10.84;76.87
81909;BME280;71372;43.514;1.512;2024-03-17T06:43:19;100450.56;;;10.96;77.04
81909;BME280;71372;43.514;1.512;2024-03-17T06:45:56;100450.03;;;11.08;76.46
81909;BME280;71372;43.514;1.512;2024-03-17T06:48:22;100450.44;;;11.19;76.57
81909;BME280;71372;43.514;1.512;2024-03-17T06:50:49;100446.44;;;11.29;76.22
81909;BME280;71372;43.514;1.512;2024-03-17T06:53:15;100440.75;;;11.37;76.14
81909;BME280;71372;43.514;1.512;2024-03-17T06:55:41;100437.72;;;11.45;76.32
81909;BME280;71372;43.514;1.512;2024-03-17T06:58:07;100441.94;;;11.50;76.24
81909;BME280;71372;43.514;1.512;2024-03-17T07:00:33;100447.03;;;11.55;76.19
81909;BME280;71372;43.514;1.512;2024-03-17T07:02:59;100439.69;;;11.60;76.21
81909;BME280;71372;43.514;1.512;2024-03-17T07:05:25;100442.22;;;11.63;76.08
81909;BME280;71372;43.514;1.512;2024-03-17T07:07:52;100426.09;;;11.66;76.11
81909;BME280;71372;43.514;1.512;2024-03-17T07:10:18;100448.91;;;11.71;76.20
81909;BME280;71372;43.514;1.512;2024-03-17T07:12:43;100437.25;;;11.74;76.04
81909;BME280;71372;43.514;1.512;2024-03-17T07:15:09;100453.00;;;11.80;75.99
81909;BME280;71372;43.514;1.512;2024-03-17T07:17:36;100451.00;;;11.85;75.88
81909;BME280;71372;43.514;1.512;2024-03-17T07:20:03;100456.09;;;11.90;75.82
81909;BME280;71372;43.514;1.512;2024-03-17T07:22:34;100465.41;;;12.00;75.73
81909;BME280;71372;43.514;1.512;2024-03-17T07:25:00;100463.09;;;12.11;75.53
81909;BME280;71372;43.514;1.512;2024-03-17T07:27:27;100470.50;;;12.23;75.86
81909;BME280;71372;43.514;1.512;2024-03-17T07:29:53;100472.50;;;12.37;75.14
81909;BME280;71372;43.514;1.512;2024-03-17T07:32:19;100479.63;;;12.55;75.04
81909;BME280;71372;43.514;1.512;2024-03-17T07:34:45;100470.59;;;12.75;74.90
81909;BME280;71372;43.514;1.512;2024-03-17T07:37:11;100464.25;;;12.95;74.15
81909;BME280;71372;43.514;1.512;2024-03-17T07:39:37;100459.69;;;13.14;73.75
81909;BME280;71372;43.514;1.512;2024-03-17T07:42:03;100464.00;;;13.34;73.42
81909;BME280;71372;43.514;1.512;2024-03-17T07:44:29;100456.66;;;13.55;73.03
81909;BME280;71372;43.514;1.512;2024-03-17T07:47:03;100453.84;;;13.74;72.42
81909;BME280;71372;43.514;1.512;2024-03-17T07:49:32;100457.56;;;13.87;72.01
81909;BME280;71372;43.514;1.512;2024-03-17T07:51:58;100461.47;;;13.97;71.70
81909;BME280;71372;43.514;1.512;2024-03-17T07:54:25;100467.06;;;14.09;71.78
81909;BME280;71372;43.514;1.512;2024-03-17T07:56:52;100468.19;;;14.20;71.64
81909;BME280;71372;43.514;1.512;2024-03-17T07:59:18;100471.13;;;14.31;71.06
81909;BME280;71372;43.514;1.512;2024-03-17T08:01:44;100480.28;;;14.43;70.68
81909;BME280;71372;43.514;1.512;2024-03-17T08:04:10;100477.72;;;14.57;70.28
81909;BME280;71372;43.514;1.512;2024-03-17T08:06:41;100486.69;;;14.72;69.67
81909;BME280;71372;43.514;1.512;2024-03-17T08:09:08;100490.34;;;14.85;69.24
81909;BME280;71372;43.514;1.512;2024-03-17T08:11:35;100483.31;;;14.99;68.84
81909;BME280;71372;43.514;1.512;2024-03-17T08:14:01;100479.03;;;15.10;68.24
81909;BME280;71372;43.514;1.512;2024-03-17T08:16:27;100488.94;;;15.24;68.50
81909;BME280;71372;43.514;1.512;2024-03-17T08:18:57;100486.25;;;15.38;67.89
81909;BME280;71372;43.514;1.512;2024-03-17T08:21:23;100486.47;;;15.49;67.40
81909;BME280;71372;43.514;1.512;2024-03-17T08:23:50;100490.19;;;15.63;66.93
81909;BME280;71372;43.514;1.512;2024-03-17T08:26:16;100498.34;;;15.75;66.54
81909;BME280;71372;43.514;1.512;2024-03-17T08:28:42;100504.06;;;15.84;65.39
81909;BME280;71372;43.514;1.512;2024-03-17T08:31:08;100491.69;;;15.95;65.51
81909;BME280;71372;43.514;1.512;2024-03-17T08:33:34;100498.00;;;16.08;65.42
81909;BME280;71372;43.514;1.512;2024-03-17T08:38:26;100490.19;;;16.32;65.25
81909;BME280;71372;43.514;1.512;2024-03-17T08:40:54;100488.81;;;16.40;64.72
81909;BME280;71372;43.514;1.512;2024-03-17T08:43:21;100489.84;;;16.51;64.38
81909;BME280;71372;43.514;1.512;2024-03-17T08:46:00;100501.50;;;16.64;63.58
81909;BME280;71372;43.514;1.512;2024-03-17T08:48:32;100496.53;;;16.73;63.55
81909;BME280;71372;43.514;1.512;2024-03-17T08:50:59;100497.06;;;16.78;63.00
81909;BME280;71372;43.514;1.512;2024-03-17T08:53:26;100494.53;;;16.89;63.04
81909;BME280;71372;43.514;1.512;2024-03-17T08:55:56;100488.53;;;16.98;62.89
81909;BME280;71372;43.514;1.512;2024-03-17T08:58:22;100486.94;;;17.08;62.58
81909;BME280;71372;43.514;1.512;2024-03-17T09:00:49;100488.81;;;17.20;62.37
81909;BME280;71372;43.514;1.512;2024-03-17T09:03:15;100491.84;;;17.29;62.28
81909;BME280;71372;43.514;1.512;2024-03-17T09:05:43;100485.69;;;17.39;61.94
81909;BME280;71372;43.514;1.512;2024-03-17T09:08:20;100496.38;;;17.41;60.18
81909;BME280;71372;43.514;1.512;2024-03-17T09:10:51;100495.41;;;17.42;60.93
81909;BME280;71372;43.514;1.512;2024-03-17T09:13:24;100495.59;;;17.51;60.12
81909;BME280;71372;43.514;1.512;2024-03-17T09:16:01;100504.13;;;17.58;60.98
81909;BME280;71372;43.514;1.512;2024-03-17T09:18:31;100501.88;;;17.65;60.41
81909;BME280;71372;43.514;1.512;2024-03-17T09:20:58;100499.81;;;17.68;60.33
81909;BME280;71372;43.514;1.512;2024-03-17T09:23:24;100497.56;;;17.75;60.22
81909;BME280;71372;43.514;1.512;2024-03-17T09:26:04;100496.91;;;17.84;59.37
81909;BME280;71372;43.514;1.512;2024-03-17T09:28:31;100487.31;;;17.93;59.65
81909;BME280;71372;43.514;1.512;2024-03-17T09:30:58;100490.53;;;17.98;59.34
81909;BME280;71372;43.514;1.512;2024-03-17T09:33:26;100483.63;;;18.06;59.17
81909;BME280;71372;43.514;1.512;2024-03-17T09:35:56;100480.38;;;18.14;58.77
81909;BME280;71372;43.514;1.512;2024-03-17T09:38:22;100477.97;;;18.22;58.55
81909;BME280;71372;43.514;1.512;2024-03-17T09:40:49;100485.50;;;18.30;58.55
81909;BME280;71372;43.514;1.512;2024-03-17T09:43:21;100476.75;;;18.39;58.46
81909;BME280;71372;43.514;1.512;2024-03-17T09:45:49;100478.97;;;18.45;57.71
81909;BME280;71372;43.514;1.512;2024-03-17T09:48:17;100465.69;;;18.55;57.92
81909;BME280;71372;43.514;1.512;2024-03-17T09:51:13;100466.22;;;18.60;56.58
81909;BME280;71372;43.514;1.512;2024-03-17T09:53:43;100471.03;;;18.67;57.87
81909;BME280;71372;43.514;1.512;2024-03-17T09:56:14;100475.88;;;18.75;57.70
81909;BME280;71372;43.514;1.512;2024-03-17T09:58:51;100483.03;;;18.87;56.87
81909;BME280;71372;43.514;1.512;2024-03-17T10:01:18;100485.03;;;18.96;57.11
81909;BME280;71372;43.514;1.512;2024-03-17T10:03:51;100494.03;;;19.08;56.95
81909;BME280;71372;43.514;1.512;2024-03-17T10:06:22;100491.38;;;19.19;57.39
81909;BME280;71372;43.514;1.512;2024-03-17T10:08:52;100491.63;;;19.27;57.11
81909;BME280;71372;43.514;1.512;2024-03-17T10:11:23;100491.03;;;19.35;56.74
81909;BME280;71372;43.514;1.512;2024-03-17T10:16:26;100490.47;;;19.43;56.35
81909;BME280;71372;43.514;1.512;2024-03-17T10:19:14;100491.69;;;19.50;55.59
81909;BME280;71372;43.514;1.512;2024-03-17T10:21:45;100491.72;;;19.61;56.85
81909;BME280;71372;43.514;1.512;2024-03-17T10:24:24;100498.13;;;19.71;55.74
81909;BME280;71372;43.514;1.512;2024-03-17T10:29:23;100501.22;;;19.78;55.66
81909;BME280;71372;43.514;1.512;2024-03-17T10:32:16;100494.31;;;19.85;54.32
81909;BME280;71372;43.514;1.512;2024-03-17T10:34:42;100496.69;;;19.90;54.93
81909;BME280;71372;43.514;1.512;2024-03-17T10:37:19;100500.59;;;19.97;55.25
81909;BME280;71372;43.514;1.512;2024-03-17T10:39:51;100496.19;;;20.07;55.56
81909;BME280;71372;43.514;1.512;2024-03-17T10:42:24;100493.59;;;20.17;55.11
81909;BME280;71372;43.514;1.512;2024-03-17T10:44:51;100483.97;;;20.24;54.84
81909;BME280;71372;43.514;1.512;2024-03-17T10:47:22;100482.91;;;20.26;54.27
81909;BME280;71372;43.514;1.512;2024-03-17T10:49:52;100475.25;;;20.31;54.26
81909;BME280;71372;43.514;1.512;2024-03-17T10:52:20;100479.31;;;20.37;54.97
81909;BME280;71372;43.514;1.512;2024-03-17T10:54:51;100503.03;;;20.44;54.57
81909;BME280;71372;43.514;1.512;2024-03-17T11:00:06;100501.44;;;20.53;54.07
81909;BME280;71372;43.514;1.512;2024-03-17T11:02:35;100510.00;;;20.58;54.22
81909;BME280;71372;43.514;1.512;2024-03-17T11:07:30;100505.28;;;20.71;53.99
81909;BME280;71372;43.514;1.512;2024-03-17T11:09:59;100498.25;;;20.80;53.94
81909;BME280;71372;43.514;1.512;2024-03-17T11:12:41;100491.50;;;20.86;52.91
81909;BME280;71372;43.514;1.512;2024-03-17T11:17:46;100497.78;;;21.07;53.46
81909;BME280;71372;43.514;1.512;2024-03-17T11:20:17;100499.47;;;21.19;53.32
81909;BME280;71372;43.514;1.512;2024-03-17T11:22:45;100499.53;;;21.29;53.44
81909;BME280;71372;43.514;1.512;2024-03-17T11:27:58;100499.97;;;21.45;52.78
81909;BME280;71372;43.514;1.512;2024-03-17T11:30:45;100499.28;;;21.53;51.72
81909;BME280;71372;43.514;1.512;2024-03-17T11:39:08;100474.56;;;21.67;51.40
81909;BME280;71372;43.514;1.512;2024-03-17T11:41:48;100463.31;;;21.72;51.84
81909;BME280;71372;43.514;1.512;2024-03-17T11:44:14;100456.75;;;21.74;51.45
81909;BME280;71372;43.514;1.512;2024-03-17T11:46:41;100450.97;;;21.88;51.90
81909;BME280;71372;43.514;1.512;2024-03-17T11:51:54;100472.09;;;22.15;51.45
81909;BME280;71372;43.514;1.512;2024-03-17T11:54:24;100470.13;;;22.27;49.93
81909;BME280;71372;43.514;1.512;2024-03-17T11:56:51;100468.13;;;22.29;50.66
81909;BME280;71372;43.514;1.512;2024-03-17T11:59:18;100467.03;;;22.41;50.36
81909;BME280;71372;43.514;1.512;2024-03-17T12:01:45;100457.28;;;22.48;50.03
81909;BME280;71372;43.514;1.512;2024-03-17T12:04:20;100445.31;;;22.61;49.25
81909;BME280;71372;43.514;1.512;2024-03-17T12:06:57;100433.50;;;22.62;49.33
81909;BME280;71372;43.514;1.512;2024-03-17T12:09:26;100430.47;;;22.65;49.70
81909;BME280;71372;43.514;1.512;2024-03-17T12:12:02;100427.88;;;22.73;49.40
81909;BME280;71372;43.514;1.512;2024-03-17T12:14:30;100408.78;;;22.74;49.03
81909;BME280;71372;43.514;1.512;2024-03-17T12:17:01;100406.31;;;22.71;48.80
81909;BME280;71372;43.514;1.512;2024-03-17T12:19:27;100401.75;;;22.72;48.38
81909;BME280;71372;43.514;1.512;2024-03-17T12:21:57;100401.19;;;22.78;48.40
81909;BME280;71372;43.514;1.512;2024-03-17T12:24:25;100389.34;;;22.89;48.11
81909;BME280;71372;43.514;1.512;2024-03-17T12:26:55;100396.03;;;22.94;47.97
81909;BME280;71372;43.514;1.512;2024-03-17T12:29:29;100393.78;;;22.99;47.59
81909;BME280;71372;43.514;1.512;2024-03-17T12:31:59;100388.44;;;23.08;47.54
81909;BME280;71372;43.514;1.512;2024-03-17T12:34:26;100386.56;;;23.18;47.82
81909;BME280;71372;43.514;1.512;2024-03-17T12:36:54;100386.41;;;23.29;47.42
81909;BME280;71372;43.514;1.512;2024-03-17T12:39:22;100381.56;;;23.32;47.24
81909;BME280;71372;43.514;1.512;2024-03-17T12:42:05;100380.66;;;23.32;46.76
81909;BME280;71372;43.514;1.512;2024-03-17T12:44:33;100380.09;;;23.38;47.15
81909;BME280;71372;43.514;1.512;2024-03-17T12:47:02;100376.06;;;23.42;46.85
81909;BME280;71372;43.514;1.512;2024-03-17T12:49:29;100371.91;;;23.48;46.69
81909;BME280;71372;43.514;1.512;2024-03-17T12:51:56;100367.88;;;23.52;46.54
81909;BME280;71372;43.514;1.512;2024-03-17T12:54:26;100361.13;;;23.66;45.89
81909;BME280;71372;43.514;1.512;2024-03-17T12:57:03;100346.06;;;23.71;45.36
81909;BME280;71372;43.514;1.512;2024-03-17T12:59:48;100356.13;;;23.88;45.39
81909;BME280;71372;43.514;1.512;2024-03-17T13:02:33;100345.81;;;23.92;45.23
81909;BME280;71372;43.514;1.512;2024-03-17T13:07:46;100341.56;;;24.07;45.08
81909;BME280;71372;43.514;1.512;2024-03-17T13:10:14;100341.41;;;24.09;45.16
81909;BME280;71372;43.514;1.512;2024-03-17T13:12:40;100334.09;;;24.09;44.81
81909;BME280;71372;43.514;1.512;2024-03-17T13:15:12;100329.34;;;24.11;44.34
81909;BME280;71372;43.514;1.512;2024-03-17T13:17:39;100324.22;;;24.08;44.76
81909;BME280;71372;43.514;1.512;2024-03-17T13:20:12;100322.19;;;24.10;44.25
81909;BME280;71372;43.514;1.512;2024-03-17T13:22:39;100309.78;;;24.08;44.29
81909;BME280;71372;43.514;1.512;2024-03-17T13:25:08;100315.31;;;24.16;43.82
81909;BME280;71372;43.514;1.512;2024-03-17T13:27:35;100315.53;;;24.23;44.24